Terminal Aerodrome Forecast
Issued by NWS Buffalo, NY

Home | Current Version | Previous Version | Text Only | Print | Product List | Glossary On
Versions: 1 2 3 4 5 6 7 8 9 10 11 12 13 14 15 16 17 18 19 20 21 22 23 24
000
FTUS41 KBUF 131100
TAFROC
TAF
KROC 131120Z 1312/1412 20010KT P6SM VCSH OVC080
     FM131500 21015G23KT 5SM -SHRA VCTS OVC040CB
     FM131800 23016G24KT P6SM BKN040
     FM132300 24012KT P6SM BKN040
     FM140300 24008KT P6SM BKN040
     FM141000 30004KT P6SM SCT250=

USA.gov is the U.S. government's official web portal to all federal, state and local government web resources and services.